Time;durP1;ratioP1;P1;durP2;ratioP2;P2;SDS_P1;SDS_P2;PMS_P1;PMS_P2;Temp;Humidity;BMP_temperature;BMP_pressure;BME280_temperature;BME280_humidity;BME280_pressure;Samples;Min_cycle;Max_cycle;Signal;HPM_P1;HPM_P2
2023/02/19 00:01:46;;;;;;;3.33;1.55;;;15.60;60.00;;;;;;2537605;53;20962;-82
2023/02/19 00:04:14;;;;;;;3.28;1.65;;;15.60;59.50;;;;;;2537934;53;21941;-85
2023/02/19 00:06:40;;;;;;;3.33;1.60;;;15.60;60.00;;;;;;2302247;53;21954;-84
2023/02/19 00:09:08;;;;;;;3.55;1.70;;;15.60;60.00;;;;;;2537243;53;22071;-82
2023/02/19 00:11:34;;;;;;;4.05;1.70;;;15.60;60.10;;;;;;2538583;53;20967;-84
2023/02/19 00:14:00;;;;;;;2.97;1.37;;;15.60;60.10;;;;;;2537378;53;21035;-84
2023/02/19 00:16:31;;;;;;;3.35;1.40;;;15.60;60.10;;;;;;2534422;53;21594;-82
2023/02/19 00:18:58;;;;;;;2.87;1.35;;;15.60;60.20;;;;;;2531250;53;21039;-82
2023/02/19 00:21:24;;;;;;;5.15;1.40;;;15.60;60.20;;;;;;2531062;53;20967;-82
2023/02/19 00:23:55;;;;;;;2.83;1.30;;;15.50;60.10;;;;;;2537050;53;20954;-82
2023/02/19 00:26:21;;;;;;;3.10;1.52;;;15.50;60.10;;;;;;2502019;54;20983;-82
2023/02/19 00:28:48;;;;;;;2.97;1.42;;;15.60;60.20;;;;;;2537227;53;21074;-82
2023/02/19 00:31:17;;;;;;;2.90;1.40;;;15.50;60.10;;;;;;2537955;53;21126;-82
2023/02/19 00:33:44;;;;;;;2.80;1.40;;;15.60;60.20;;;;;;2301940;53;21054;-81
2023/02/19 00:36:10;;;;;;;2.67;1.30;;;15.50;60.10;;;;;;2537655;53;22091;-82
2023/02/19 00:38:37;;;;;;;4.07;1.10;;;15.50;60.10;;;;;;2537577;53;20951;-82
2023/02/19 00:41:18;;;;;;;2.78;1.30;;;15.50;60.20;;;;;;2537736;53;20935;-82
2023/02/19 00:44:04;;;;;;;2.78;1.20;;;15.50;60.10;;;;;;2537623;53;20947;-83
2023/02/19 00:46:38;;;;;;;2.80;1.20;;;15.40;59.60;;;;;;2537902;53;20947;-84
2023/02/19 00:49:05;;;;;;;2.72;1.33;;;15.40;59.90;;;;;;2536829;53;20999;-84
2023/02/19 00:51:35;;;;;;;2.35;1.10;;;15.40;60.10;;;;;;2538655;53;21360;-83
2023/02/19 00:54:02;;;;;;;2.92;1.25;;;15.40;60.10;;;;;;2537954;53;20979;-83
2023/02/19 00:56:28;;;;;;;2.83;1.37;;;15.40;60.10;;;;;;2541832;53;21951;-82
2023/02/19 00:58:55;;;;;;;3.42;1.55;;;15.40;60.10;;;;;;2536649;53;21095;-83
2023/02/19 01:01:21;;;;;;;2.95;1.70;;;15.40;60.10;;;;;;2538475;53;20987;-82
2023/02/19 01:03:47;;;;;;;2.87;1.37;;;15.40;60.20;;;;;;2535122;53;20925;-82
2023/02/19 01:06:15;;;;;;;2.90;1.40;;;15.40;60.20;;;;;;2532685;53;20991;-82
2023/02/19 01:08:41;;;;;;;2.97;1.50;;;15.40;60.30;;;;;;2302041;53;20959;-82
2023/02/19 01:11:08;;;;;;;3.75;1.52;;;15.30;60.20;;;;;;2537353;53;21824;-85
2023/02/19 01:13:34;;;;;;;4.12;1.92;;;15.30;60.20;;;;;;2303212;53;21138;-84
2023/02/19 01:16:34;;;;;;;3.20;1.50;;;15.30;60.20;;;;;;2538916;53;20927;-84
2023/02/19 01:19:00;;;;;;;3.35;1.50;;;15.30;59.70;;;;;;2539579;53;20943;-84
2023/02/19 01:21:27;;;;;;;2.70;1.20;;;15.30;60.20;;;;;;2304455;53;21066;-84
2023/02/19 01:23:53;;;;;;;5.37;1.55;;;15.30;60.20;;;;;;2540044;53;21070;-83
2023/02/19 01:26:21;;;;;;;3.28;1.42;;;15.30;60.20;;;;;;2305464;53;21085;-83
2023/02/19 01:28:47;;;;;;;3.30;1.37;;;15.30;60.20;;;;;;2544007;53;21099;-83
2023/02/19 01:31:15;;;;;;;2.83;1.30;;;15.30;60.20;;;;;;2542313;53;20974;-83
2023/02/19 01:33:49;;;;;;;4.22;1.65;;;15.30;60.30;;;;;;2538496;53;20999;-82
2023/02/19 01:36:16;;;;;;;3.00;1.20;;;15.30;60.00;;;;;;2303352;53;21061;-82
2023/02/19 01:38:42;;;;;;;3.30;1.33;;;15.30;60.30;;;;;;2302167;53;22007;-82
2023/02/19 01:41:10;;;;;;;3.55;1.58;;;15.30;60.10;;;;;;2538454;53;21034;-85
2023/02/19 01:43:57;;;;;;;3.33;1.30;;;15.30;60.00;;;;;;2538495;53;21063;-82
2023/02/19 01:46:31;;;;;;;2.40;1.00;;;15.30;59.70;;;;;;2539393;53;20927;-84
2023/02/19 01:49:33;;;;;;;3.05;1.40;;;15.20;59.80;;;;;;2501337;53;21255;-84
2023/02/19 01:52:13;;;;;;;4.03;1.65;;;15.30;60.10;;;;;;2536805;53;21298;-84
2023/02/19 01:54:40;;;;;;;3.17;1.25;;;15.20;59.80;;;;;;2302163;53;20942;-85
2023/02/19 01:57:07;;;;;;;3.33;1.37;;;15.20;60.10;;;;;;2528789;53;20972;-84
2023/02/19 01:59:33;;;;;;;2.83;1.08;;;15.20;60.10;;;;;;2537827;53;20995;-83
2023/02/19 02:02:00;;;;;;;2.53;1.05;;;15.20;60.10;;;;;;2537131;53;20990;-84
2023/02/19 02:04:27;;;;;;;3.05;1.30;;;15.20;60.10;;;;;;2538186;53;21349;-82
2023/02/19 02:06:54;;;;;;;2.33;1.00;;;15.20;60.10;;;;;;2537034;53;20927;-84
2023/02/19 02:12:07;;;;;;;3.72;1.40;;;15.20;60.10;;;;;;2537525;53;20991;-84
2023/02/19 02:14:35;;;;;;;2.22;1.10;;;15.20;60.00;;;;;;2538130;53;20947;-85
2023/02/19 02:18:08;;;;;;;2.47;1.15;;;15.20;60.00;;;;;;2300722;53;20994;-84
2023/02/19 02:21:03;;;;;;;2.75;1.00;;;15.20;59.40;;;;;;2529298;53;20956;-83
2023/02/19 02:26:17;;;;;;;2.22;1.02;;;15.20;59.60;;;;;;2538002;53;20971;-84
2023/02/19 02:29:10;;;;;;;2.15;0.90;;;15.20;59.70;;;;;;2537016;53;21102;-84
2023/02/19 02:31:44;;;;;;;1.92;0.93;;;15.20;59.50;;;;;;2301864;53;20991;-84
2023/02/19 02:34:16;;;;;;;2.75;0.98;;;15.10;59.80;;;;;;2300244;53;21039;-85
2023/02/19 02:36:44;;;;;;;2.40;0.90;;;15.10;59.90;;;;;;2536140;53;20998;-84
2023/02/19 02:39:12;;;;;;;1.75;0.80;;;15.10;59.90;;;;;;2535150;53;20955;-84
2023/02/19 02:41:48;;;;;;;1.87;0.90;;;15.10;60.00;;;;;;2536286;53;21026;-85
2023/02/19 02:44:14;;;;;;;1.70;0.85;;;15.00;59.80;;;;;;2535851;53;21102;-83
2023/02/19 02:46:41;;;;;;;2.00;0.90;;;15.00;60.00;;;;;;2535559;53;21086;-84
2023/02/19 02:49:20;;;;;;;3.28;1.10;;;15.00;60.00;;;;;;2535478;53;21983;-84
2023/02/19 02:51:49;;;;;;;2.03;0.88;;;15.00;59.70;;;;;;2535342;53;21062;-84
2023/02/19 02:57:04;;;;;;;2.22;0.85;;;15.00;59.90;;;;;;2533241;53;20958;-83
2023/02/19 02:59:32;;;;;;;1.55;0.77;;;15.00;60.00;;;;;;2536312;53;20939;-83
2023/02/19 03:02:13;;;;;;;2.08;0.90;;;14.90;59.90;;;;;;2499665;53;21117;-84
2023/02/19 03:08:09;;;;;;;2.00;0.80;;;14.90;59.40;;;;;;2535559;53;21537;-83
2023/02/19 03:10:55;;;;;;;2.12;0.93;;;14.90;59.80;;;;;;2536515;53;21036;-84
2023/02/19 03:19:18;;;;;;;2.37;1.08;;;14.90;59.70;;;;;;2536065;53;20950;-84
2023/02/19 03:22:40;;;;;;;2.47;1.05;;;14.90;60.10;;;;;;2299940;53;20939;-84
2023/02/19 03:27:55;;;;;;;1.92;0.90;;;14.80;60.00;;;;;;2299123;53;25397;-84
2023/02/19 03:30:24;;;;;;;2.65;1.00;;;14.80;60.10;;;;;;2536858;53;20967;-84
2023/02/19 03:32:57;;;;;;;1.80;0.90;;;14.80;60.10;;;;;;2536372;53;21078;-85
2023/02/19 03:35:29;;;;;;;2.42;0.90;;;14.80;60.10;;;;;;2302224;53;20966;-84
2023/02/19 03:38:17;;;;;;;2.55;1.00;;;14.80;60.10;;;;;;2536611;53;21985;-84
2023/02/19 03:40:58;;;;;;;2.17;1.05;;;14.80;59.90;;;;;;2537549;53;21003;-84
2023/02/19 03:44:24;;;;;;;2.47;1.00;;;14.80;60.00;;;;;;2302153;53;20974;-84
2023/02/19 03:47:02;;;;;;;2.28;1.00;;;14.80;59.70;;;;;;2537567;53;21570;-84
2023/02/19 03:50:00;;;;;;;2.40;1.00;;;14.70;59.90;;;;;;2537966;53;21995;-85
2023/02/19 03:53:05;;;;;;;2.90;1.40;;;14.70;59.60;;;;;;2538280;53;20927;-84
2023/02/19 03:55:53;;;;;;;2.25;0.80;;;14.70;59.70;;;;;;2537805;53;21002;-85
2023/02/19 04:03:38;;;;;;;1.85;0.85;;;14.70;59.70;;;;;;2537280;53;20955;-84
2023/02/19 04:06:07;;;;;;;1.62;0.70;;;14.70;60.00;;;;;;2536856;53;20974;-85
2023/02/19 04:08:34;;;;;;;1.77;0.70;;;14.70;60.30;;;;;;2501447;53;21050;-84
2023/02/19 04:11:00;;;;;;;2.22;1.00;;;14.60;60.30;;;;;;2536381;53;20927;-85
2023/02/19 04:13:43;;;;;;;1.95;0.95;;;14.60;60.30;;;;;;2301997;53;20950;-83
2023/02/19 04:16:14;;;;;;;2.55;1.00;;;14.60;60.40;;;;;;2536923;53;20947;-85
2023/02/19 04:18:40;;;;;;;2.40;1.00;;;14.60;60.40;;;;;;2536683;53;21530;-84
2023/02/19 04:21:06;;;;;;;2.72;1.30;;;14.60;60.40;;;;;;2301144;53;21896;-85
2023/02/19 04:23:39;;;;;;;1.40;0.75;;;14.60;60.50;;;;;;2538282;53;21959;-84
2023/02/19 04:26:06;;;;;;;;;;;14.60;60.40;;;;;;2540738;53;21007;-86
2023/02/19 04:28:33;;;;;;;1.80;0.70;;;14.60;60.00;;;;;;2537712;53;20115;-84
2023/02/19 04:31:00;;;;;;;1.73;0.77;;;14.60;60.50;;;;;;2300768;53;21116;-85
2023/02/19 04:33:26;;;;;;;2.78;1.08;;;14.60;60.50;;;;;;2538053;53;21067;-85
2023/02/19 04:35:52;;;;;;;3.78;1.52;;;14.60;60.50;;;;;;2537244;53;21944;-84
2023/02/19 04:38:19;;;;;;;2.45;0.90;;;14.60;60.50;;;;;;2537454;53;20959;-84
2023/02/19 04:40:46;;;;;;;3.28;1.10;;;14.60;60.60;;;;;;2537346;53;21069;-84
2023/02/19 04:43:12;;;;;;;2.70;1.12;;;14.60;60.60;;;;;;2537072;53;20934;-85
2023/02/19 04:45:38;;;;;;;3.00;1.23;;;14.60;60.60;;;;;;2538043;53;21003;-84
2023/02/19 04:48:04;;;;;;;2.40;1.30;;;14.60;60.50;;;;;;2536674;53;21475;-83
2023/02/19 04:50:31;;;;;;;2.28;1.08;;;14.60;60.50;;;;;;2302110;53;21996;-85
2023/02/19 04:52:57;;;;;;;2.42;1.08;;;14.60;60.40;;;;;;2536712;53;21011;-84
2023/02/19 04:55:23;;;;;;;1.92;0.90;;;14.60;60.40;;;;;;2538497;53;20931;-84
2023/02/19 04:57:50;;;;;;;1.73;0.80;;;14.60;60.40;;;;;;2537670;53;22011;-84
2023/02/19 05:00:16;;;;;;;1.62;0.80;;;14.60;60.40;;;;;;2537050;53;20927;-84
2023/02/19 05:02:42;;;;;;;1.80;0.90;;;14.50;60.30;;;;;;2301665;53;21090;-83
2023/02/19 05:05:09;;;;;;;3.17;1.20;;;14.50;60.30;;;;;;2537676;53;21991;-83
2023/02/19 05:07:35;;;;;;;2.50;1.00;;;14.50;60.50;;;;;;2538582;53;21053;-85
2023/02/19 05:10:01;;;;;;;2.33;0.90;;;14.50;60.50;;;;;;2536616;53;21117;-84
2023/02/19 05:12:29;;;;;;;2.37;0.85;;;14.40;60.50;;;;;;2538168;53;20966;-83
2023/02/19 05:14:55;;;;;;;1.80;0.70;;;14.40;60.60;;;;;;2537558;53;20983;-84
2023/02/19 05:17:21;;;;;;;2.53;1.08;;;14.40;60.70;;;;;;2537893;53;22069;-87
2023/02/19 05:19:48;;;;;;;3.10;1.20;;;14.40;60.80;;;;;;2537579;53;20935;-84
2023/02/19 05:22:14;;;;;;;2.17;0.90;;;14.40;60.80;;;;;;2537717;53;20934;-85
2023/02/19 05:24:40;;;;;;;2.60;1.20;;;14.40;60.90;;;;;;2538572;53;20959;-85
2023/02/19 05:27:07;;;;;;;2.60;1.08;;;14.40;60.90;;;;;;2301869;53;20991;-83
2023/02/19 05:29:33;;;;;;;2.10;1.00;;;14.40;61.00;;;;;;2538268;53;21003;-84
2023/02/19 05:31:59;;;;;;;2.20;0.93;;;14.30;61.00;;;;;;2301617;53;21058;-83
2023/02/19 05:34:26;;;;;;;3.35;1.50;;;14.30;61.00;;;;;;2538240;53;20998;-84
2023/02/19 05:36:52;;;;;;;4.82;2.05;;;14.30;61.00;;;;;;2537509;53;20994;-82
2023/02/19 05:39:18;;;;;;;3.70;1.55;;;14.30;61.10;;;;;;2301575;53;21991;-83
2023/02/19 05:41:45;;;;;;;3.80;1.37;;;14.20;61.00;;;;;;2302071;53;21038;-83
2023/02/19 05:44:11;;;;;;;3.65;1.25;;;14.30;61.20;;;;;;2537319;53;21510;-83
2023/02/19 05:46:37;;;;;;;3.78;1.70;;;14.20;61.20;;;;;;2538233;53;22165;-83
2023/02/19 05:49:04;;;;;;;3.17;1.42;;;14.20;61.30;;;;;;2537125;53;21034;-83
2023/02/19 05:51:30;;;;;;;2.35;1.00;;;14.20;61.30;;;;;;2538856;53;21066;-84
2023/02/19 05:53:56;;;;;;;2.90;1.20;;;14.20;61.30;;;;;;2538268;53;21039;-82
2023/02/19 05:56:41;;;;;;;2.50;1.10;;;14.10;61.20;;;;;;2538830;53;20963;-83
2023/02/19 05:59:19;;;;;;;2.25;1.00;;;14.10;61.20;;;;;;2537140;53;20919;-82
2023/02/19 06:01:45;;;;;;;1.30;0.60;;;14.10;61.30;;;;;;2536911;53;21036;-82
2023/02/19 06:04:12;;;;;;;1.83;0.60;;;14.00;61.30;;;;;;2526831;53;20948;-85
2023/02/19 06:06:39;;;;;;;0.73;0.40;;;14.00;61.40;;;;;;2531026;53;21217;-84
2023/02/19 06:09:05;;;;;;;1.15;0.45;;;14.00;61.90;;;;;;2532713;53;21121;-83
2023/02/19 06:11:32;;;;;;;0.77;0.32;;;14.00;61.60;;;;;;2533728;53;21990;-82
2023/02/19 06:13:58;;;;;;;2.10;0.95;;;14.00;61.70;;;;;;2532591;53;20959;-82
2023/02/19 06:16:24;;;;;;;1.98;0.90;;;14.00;61.70;;;;;;2534748;53;21069;-83
2023/02/19 06:18:51;;;;;;;1.02;0.65;;;14.00;61.90;;;;;;2533894;53;21468;-83
2023/02/19 06:21:17;;;;;;;3.12;0.93;;;14.00;61.90;;;;;;2534861;53;21045;-84
2023/02/19 06:23:44;;;;;;;2.00;1.20;;;14.00;61.90;;;;;;2535134;53;20947;-83
2023/02/19 06:26:20;;;;;;;2.50;1.20;;;14.00;61.90;;;;;;2299000;53;20943;-83
2023/02/19 06:28:48;;;;;;;2.10;1.08;;;14.00;62.10;;;;;;2535298;53;20998;-83
2023/02/19 06:31:14;;;;;;;3.53;1.10;;;14.00;62.10;;;;;;2536430;53;20962;-84
2023/02/19 06:33:41;;;;;;;2.60;0.90;;;14.00;62.00;;;;;;2301126;53;20965;-82
2023/02/19 06:36:13;;;;;;;1.10;0.50;;;14.00;62.10;;;;;;2535788;53;21364;-86
2023/02/19 06:38:39;;;;;;;1.42;0.50;;;14.00;62.10;;;;;;2297827;53;20939;-83
2023/02/19 06:41:06;;;;;;;1.02;0.40;;;13.90;62.00;;;;;;2531930;53;20931;-85
2023/02/19 06:43:32;;;;;;;0.55;0.35;;;13.90;62.10;;;;;;2531293;53;21403;-86
2023/02/19 06:46:02;;;;;;;1.40;0.60;;;13.90;62.30;;;;;;2523379;53;20996;-86
2023/02/19 06:48:29;;;;;;;1.23;0.50;;;13.90;62.10;;;;;;2521058;53;22005;-83
2023/02/19 06:50:56;;;;;;;1.17;0.50;;;13.90;62.10;;;;;;2295498;53;22051;-83
2023/02/19 06:53:22;;;;;;;0.88;0.50;;;13.90;61.90;;;;;;2529788;53;20939;-82
2023/02/19 06:55:58;;;;;;;0.93;0.43;;;13.90;62.10;;;;;;2526695;53;21031;-83
2023/02/19 06:58:26;;;;;;;1.35;0.55;;;13.90;62.10;;;;;;2522952;53;20963;-86
2023/02/19 07:00:55;;;;;;;1.92;0.50;;;13.90;62.00;;;;;;2529140;53;22148;-83
2023/02/19 07:03:22;;;;;;;1.20;0.45;;;13.90;62.10;;;;;;2529349;53;21106;-84
2023/02/19 07:05:49;;;;;;;1.83;0.70;;;13.90;62.00;;;;;;2528665;53;21035;-83
2023/02/19 07:08:18;;;;;;;0.80;0.50;;;13.80;61.90;;;;;;2527859;53;20947;-84
2023/02/19 07:10:44;;;;;;;1.65;0.80;;;13.80;62.00;;;;;;2294146;53;20958;-84
2023/02/19 07:13:11;;;;;;;1.02;0.40;;;13.80;61.90;;;;;;2527971;53;21477;-83
2023/02/19 07:15:37;;;;;;;1.70;0.50;;;13.80;62.20;;;;;;2529061;53;20978;-83
2023/02/19 07:18:05;;;;;;;0.82;0.45;;;13.80;61.90;;;;;;2528340;53;20939;-82
2023/02/19 07:20:32;;;;;;;0.77;0.30;;;13.80;62.00;;;;;;2529287;53;20963;-83
2023/02/19 07:22:58;;;;;;;1.02;0.40;;;13.80;62.00;;;;;;2528442;53;20962;-83
2023/02/19 07:25:25;;;;;;;1.02;0.40;;;13.80;62.10;;;;;;2520663;53;21406;-83
2023/02/19 07:27:51;;;;;;;0.65;0.35;;;13.70;62.00;;;;;;2529172;53;21048;-84
2023/02/19 07:30:18;;;;;;;0.70;0.30;;;13.70;62.10;;;;;;2528553;53;21063;-83
2023/02/19 07:32:44;;;;;;;1.30;0.40;;;13.70;62.10;;;;;;2528906;53;21997;-82
2023/02/19 07:35:10;;;;;;;0.93;0.40;;;13.70;62.10;;;;;;2528805;53;20955;-83
2023/02/19 07:37:37;;;;;;;0.60;0.30;;;13.70;62.00;;;;;;2528850;53;20974;-84
2023/02/19 07:40:04;;;;;;;0.93;0.45;;;13.70;62.00;;;;;;2294286;53;22066;-83
2023/02/19 07:42:30;;;;;;;0.62;0.30;;;13.70;62.10;;;;;;2529152;53;21010;-83
2023/02/19 07:44:57;;;;;;;0.65;0.30;;;13.70;62.10;;;;;;2528274;53;20927;-83
2023/02/19 07:47:26;;;;;;;0.95;0.50;;;13.70;62.10;;;;;;2528944;53;20965;-83
2023/02/19 07:49:52;;;;;;;1.37;0.50;;;13.70;62.10;;;;;;2528965;53;20951;-82
2023/02/19 07:52:19;;;;;;;1.23;0.50;;;13.70;62.10;;;;;;2529066;53;20995;-87
2023/02/19 07:54:45;;;;;;;1.42;0.50;;;13.80;62.20;;;;;;2529637;53;20947;-83
2023/02/19 07:57:11;;;;;;;1.02;0.50;;;13.70;62.20;;;;;;2294909;53;20951;-83
2023/02/19 07:59:38;;;;;;;1.58;0.75;;;13.80;62.30;;;;;;2529376;53;20955;-83
2023/02/19 08:04:52;;;;;;;1.05;0.45;;;13.80;62.40;;;;;;2528051;53;21010;-85
2023/02/19 08:07:18;;;;;;;0.88;0.40;;;13.60;61.90;;;;;;2528933;53;20958;-83
2023/02/19 08:13:17;;;;;;;0.52;0.22;;;13.80;62.10;;;;;;2526996;53;21000;-86
2023/02/19 08:15:48;;;;;;;0.57;0.30;;;13.80;62.30;;;;;;2528469;53;20979;-83
2023/02/19 08:18:15;;;;;;;0.37;0.20;;;13.80;62.20;;;;;;2528559;53;21102;-82
2023/02/19 08:20:42;;;;;;;0.70;0.30;;;13.80;62.20;;;;;;2527493;53;21048;-83
2023/02/19 08:23:08;;;;;;;1.58;0.50;;;13.80;62.20;;;;;;2521711;53;20959;-84
2023/02/19 08:25:36;;;;;;;1.08;0.30;;;13.90;62.20;;;;;;2529608;53;22132;-83
2023/02/19 08:28:03;;;;;;;0.80;0.30;;;13.80;62.20;;;;;;2527593;53;20998;-83
2023/02/19 08:30:29;;;;;;;1.35;0.52;;;13.80;62.20;;;;;;2528042;53;21070;-84
2023/02/19 08:32:57;;;;;;;1.12;0.55;;;13.90;62.30;;;;;;2528043;53;20967;-84
2023/02/19 08:35:23;;;;;;;1.12;0.40;;;13.90;62.40;;;;;;2528548;53;22135;-83
2023/02/19 08:37:50;;;;;;;1.37;0.40;;;13.90;62.90;;;;;;2528355;53;21003;-83
2023/02/19 08:40:16;;;;;;;1.12;0.40;;;13.90;62.30;;;;;;2528465;53;20965;-84
2023/02/19 08:42:42;;;;;;;0.98;0.40;;;13.90;62.10;;;;;;2528495;53;21507;-82
2023/02/19 08:45:09;;;;;;;1.40;0.50;;;13.90;62.30;;;;;;2527517;53;20986;-83
2023/02/19 08:47:35;;;;;;;1.40;0.57;;;13.90;62.30;;;;;;2527269;53;22076;-82
2023/02/19 08:50:03;;;;;;;2.15;0.88;;;13.90;62.10;;;;;;2292406;53;20970;-82
2023/02/19 08:52:30;;;;;;;2.80;0.85;;;14.00;62.30;;;;;;2518142;54;20976;-83
2023/02/19 08:54:57;;;;;;;2.12;0.68;;;14.00;62.10;;;;;;2529599;53;21363;-83
2023/02/19 08:57:23;;;;;;;1.33;0.50;;;14.00;62.20;;;;;;2295340;53;20954;-83
2023/02/19 08:59:50;;;;;;;1.67;0.60;;;14.00;62.00;;;;;;2294977;53;21110;-82
2023/02/19 09:02:17;;;;;;;1.00;0.50;;;14.00;62.20;;;;;;2529867;53;20954;-83
2023/02/19 09:04:44;;;;;;;1.10;0.47;;;14.00;62.10;;;;;;2530842;53;21006;-82
2023/02/19 09:07:11;;;;;;;1.35;0.60;;;14.00;62.10;;;;;;2532343;53;20979;-83
2023/02/19 09:09:38;;;;;;;1.23;0.62;;;14.00;62.20;;;;;;2524105;53;21122;-82
2023/02/19 09:12:06;;;;;;;1.60;0.65;;;14.00;61.90;;;;;;2531907;53;22010;-84
2023/02/19 09:14:33;;;;;;;1.17;0.40;;;14.00;62.10;;;;;;2533084;53;21070;-84
2023/02/19 09:17:00;;;;;;;1.52;0.68;;;14.10;62.00;;;;;;2534125;53;21005;-84
2023/02/19 09:19:27;;;;;;;1.75;0.70;;;14.10;62.20;;;;;;2530170;53;22088;-84
2023/02/19 09:21:54;;;;;;;1.25;0.65;;;14.10;62.10;;;;;;2296839;53;21099;-83
2023/02/19 09:24:20;;;;;;;2.90;1.00;;;14.20;62.10;;;;;;2523405;53;20931;-84
2023/02/19 09:26:53;;;;;;;5.57;1.80;;;14.10;62.10;;;;;;2530192;53;22002;-83
2023/02/19 09:29:28;;;;;;;4.00;1.33;;;13.90;61.80;;;;;;2296867;53;22230;-83
2023/02/19 09:31:56;;;;;;;3.92;1.42;;;14.10;62.20;;;;;;2534089;53;20935;-84
2023/02/19 09:34:23;;;;;;;3.67;1.10;;;14.10;62.10;;;;;;2295751;53;21068;-84
2023/02/19 09:36:49;;;;;;;4.00;1.25;;;14.10;62.10;;;;;;2529964;53;21098;-84
2023/02/19 09:39:17;;;;;;;2.60;1.20;;;14.20;62.10;;;;;;2529420;53;20943;-84
2023/02/19 09:42:44;;;;;;;2.25;0.85;;;14.20;62.10;;;;;;2531457;53;20974;-85
2023/02/19 09:45:18;;;;;;;1.52;0.60;;;14.20;61.50;;;;;;2532207;53;20931;-84
2023/02/19 09:47:44;;;;;;;3.20;1.48;;;14.30;62.20;;;;;;2531508;53;21090;-84
2023/02/19 09:50:12;;;;;;;2.97;1.55;;;14.30;62.20;;;;;;2523858;53;21028;-83
2023/02/19 09:52:44;;;;;;;5.93;3.30;;;14.30;62.20;;;;;;2530968;53;21004;-84
2023/02/19 09:55:25;;;;;;;4.82;2.22;;;14.30;62.00;;;;;;2530809;53;21640;-84
2023/02/19 09:57:51;;;;;;;3.60;1.73;;;14.40;62.10;;;;;;2530845;53;21648;-84
2023/02/19 10:00:25;;;;;;;2.83;1.27;;;14.40;62.10;;;;;;2530487;53;20959;-83
2023/02/19 10:03:03;;;;;;;3.37;1.10;;;14.40;62.00;;;;;;2531567;53;22246;-83
2023/02/19 10:05:29;;;;;;;2.20;0.80;;;14.50;62.10;;;;;;2523512;53;21071;-84
2023/02/19 10:07:56;;;;;;;0.88;0.40;;;14.50;62.10;;;;;;2531947;53;21006;-83
2023/02/19 10:10:28;;;;;;;1.37;0.50;;;14.50;62.00;;;;;;2531434;53;21447;-84
2023/02/19 10:12:55;;;;;;;1.30;0.50;;;14.60;62.10;;;;;;2530848;53;20948;-83
2023/02/19 10:15:29;;;;;;;1.42;0.60;;;14.60;62.10;;;;;;2530724;53;20924;-83
2023/02/19 10:17:55;;;;;;;1.12;0.50;;;14.60;61.90;;;;;;2531395;53;20979;-82
2023/02/19 10:20:23;;;;;;;1.55;0.60;;;14.70;61.80;;;;;;2532069;53;20963;-83
2023/02/19 10:23:03;;;;;;;1.50;0.50;;;14.70;61.60;;;;;;2530880;53;22245;-83
2023/02/19 10:25:29;;;;;;;1.42;0.60;;;14.70;61.10;;;;;;2529804;53;21062;-84
2023/02/19 10:28:00;;;;;;;1.50;0.60;;;14.80;61.60;;;;;;2530279;53;21086;-83
2023/02/19 10:30:30;;;;;;;1.62;0.65;;;14.80;61.40;;;;;;2295436;53;21006;-85
2023/02/19 10:33:18;;;;;;;1.45;0.60;;;14.80;61.30;;;;;;2296263;53;20891;-84
2023/02/19 10:36:05;;;;;;;1.30;0.60;;;14.80;60.70;;;;;;2533762;53;21054;-83
2023/02/19 10:38:36;;;;;;;2.05;0.70;;;14.80;60.90;;;;;;2532839;53;21121;-83
2023/02/19 10:41:21;;;;;;;1.27;0.62;;;14.90;61.40;;;;;;2533889;53;20987;-83
2023/02/19 10:44:08;;;;;;;1.80;0.70;;;14.90;60.90;;;;;;2533753;53;20967;-83
2023/02/19 10:46:36;;;;;;;1.95;0.80;;;14.90;60.90;;;;;;2533801;53;21050;-84
2023/02/19 10:49:11;;;;;;;3.25;1.10;;;14.90;61.10;;;;;;2298206;53;21522;-83
2023/02/19 10:51:39;;;;;;;2.30;1.00;;;14.90;61.00;;;;;;2299039;53;20950;-83
2023/02/19 10:54:39;;;;;;;2.03;0.70;;;14.90;61.10;;;;;;2533501;53;20963;-82
2023/02/19 10:58:27;;;;;;;2.45;1.00;;;14.90;60.40;;;;;;2533743;53;21022;-83
2023/02/19 11:01:09;;;;;;;2.85;1.58;;;14.90;60.40;;;;;;2534684;53;20946;-83
2023/02/19 11:03:36;;;;;;;3.50;1.58;;;15.00;60.70;;;;;;2299888;53;21031;-84
2023/02/19 11:06:03;;;;;;;3.47;1.67;;;15.00;61.20;;;;;;2534678;53;20935;-83
2023/02/19 11:08:43;;;;;;;3.50;1.83;;;15.00;61.20;;;;;;2535810;53;20971;-83
2023/02/19 11:11:20;;;;;;;3.95;1.65;;;15.10;61.30;;;;;;2536922;53;22405;-83
2023/02/19 11:13:46;;;;;;;3.00;1.52;;;15.00;61.10;;;;;;2300409;54;20943;-82
2023/02/19 11:16:12;;;;;;;3.15;1.60;;;15.00;60.90;;;;;;2528018;53;20919;-82
2023/02/19 11:18:39;;;;;;;2.87;1.20;;;15.10;60.90;;;;;;2537058;53;22005;-83
2023/02/19 11:21:06;;;;;;;2.22;0.82;;;15.10;60.80;;;;;;2537331;53;20931;-83
2023/02/19 11:23:37;;;;;;;2.45;0.90;;;15.20;60.70;;;;;;2538835;53;21468;-82
2023/02/19 11:26:14;;;;;;;2.10;0.90;;;15.10;60.30;;;;;;2302054;53;20967;-82
2023/02/19 11:28:41;;;;;;;2.10;0.85;;;15.10;60.40;;;;;;2535439;53;21042;-84
2023/02/19 11:31:27;;;;;;;2.00;0.90;;;15.10;60.40;;;;;;2298860;53;20955;-84
2023/02/19 11:35:13;;;;;;;1.92;0.70;;;15.10;60.10;;;;;;2534257;53;21070;-83
2023/02/19 11:37:56;;;;;;;3.12;0.70;;;15.10;59.70;;;;;;2533769;53;20987;-84
2023/02/19 11:41:37;;;;;;;2.22;1.10;;;15.10;60.00;;;;;;2533361;53;20943;-84
2023/02/19 11:47:27;;;;;;;3.22;1.25;;;15.10;59.80;;;;;;2533718;53;20935;-82
2023/02/19 11:50:13;;;;;;;1.77;0.65;;;15.20;60.00;;;;;;2532015;53;20979;-85
2023/02/19 11:53:16;;;;;;;1.75;0.73;;;15.20;60.40;;;;;;2298231;53;20958;-83
2023/02/19 12:02:36;;;;;;;1.83;0.77;;;15.20;60.00;;;;;;2524653;53;21139;-84
2023/02/19 12:08:16;;;;;;;1.67;0.62;;;15.20;60.50;;;;;;2298544;53;21405;-87
2023/02/19 12:12:04;;;;;;;0.90;0.40;;;15.20;60.30;;;;;;2533181;53;21022;-83
2023/02/19 12:16:10;;;;;;;2.00;0.80;;;15.30;60.30;;;;;;2533561;53;20987;-83
2023/02/19 12:22:02;;;;;;;3.55;1.20;;;15.30;60.60;;;;;;2533192;53;20954;-84
2023/02/19 12:24:55;;;;;;;2.20;0.90;;;15.30;60.60;;;;;;2534290;53;20987;-85
2023/02/19 12:29:19;;;;;;;2.78;1.17;;;15.30;61.00;;;;;;2526237;53;21310;-85
2023/02/19 12:33:47;;;;;;;2.47;0.90;;;15.50;60.70;;;;;;2533554;53;21030;-82
2023/02/19 12:36:53;;;;;;;2.62;0.95;;;15.50;60.90;;;;;;2533373;53;21129;-83
2023/02/19 12:39:27;;;;;;;6.10;2.00;;;15.50;60.20;;;;;;2297652;53;20961;-82
2023/02/19 12:42:22;;;;;;;7.65;3.20;;;15.50;60.50;;;;;;2495989;54;21591;-85
2023/02/19 12:44:55;;;;;;;7.57;2.65;;;15.60;60.00;;;;;;2295764;53;21018;-84
2023/02/19 12:47:23;;;;;;;6.40;2.37;;;15.60;60.30;;;;;;2535774;53;21015;-85
2023/02/19 12:50:25;;;;;;;4.80;2.03;;;15.60;60.20;;;;;;2533506;53;21986;-85
2023/02/19 12:52:57;;;;;;;8.73;3.25;;;15.60;60.00;;;;;;2532041;53;21593;-83
2023/02/19 12:55:26;;;;;;;5.72;2.15;;;15.60;60.00;;;;;;2532972;53;20970;-84
2023/02/19 12:57:52;;;;;;;4.95;1.85;;;15.60;59.90;;;;;;2532936;53;21038;-82
2023/02/19 13:00:29;;;;;;;5.03;2.37;;;15.60;59.80;;;;;;2533023;53;21010;-83
2023/02/19 13:03:21;;;;;;;3.90;1.52;;;15.60;59.50;;;;;;2533998;53;20924;-84
2023/02/19 13:07:50;;;;;;;3.95;1.52;;;15.70;59.20;;;;;;2299022;53;21196;-83
2023/02/19 13:11:00;;;;;;;2.58;0.95;;;15.70;59.30;;;;;;2536439;53;20970;-82
2023/02/19 13:13:33;;;;;;;2.72;0.62;;;15.70;58.90;;;;;;2299386;53;20979;-82
2023/02/19 13:16:03;;;;;;;2.30;1.08;;;15.70;60.10;;;;;;2536700;53;20961;-84
2023/02/19 13:18:44;;;;;;;3.90;1.30;;;15.70;59.30;;;;;;2535333;53;20939;-82
2023/02/19 13:23:56;;;;;;;3.00;1.40;;;15.70;59.00;;;;;;2531412;53;21557;-82
2023/02/19 13:28:04;;;;;;;1.92;0.70;;;15.70;59.30;;;;;;2534727;53;20963;-86
2023/02/19 13:30:47;;;;;;;2.67;0.90;;;15.70;58.60;;;;;;2532128;53;21970;-84
2023/02/19 13:33:41;;;;;;;1.65;0.52;;;15.70;59.00;;;;;;2533915;53;21541;-82
2023/02/19 13:36:15;;;;;;;1.52;0.50;;;15.70;58.60;;;;;;2534991;53;20982;-84
2023/02/19 13:38:46;;;;;;;1.45;0.57;;;15.70;58.90;;;;;;2532453;53;20973;-84
2023/02/19 13:41:29;;;;;;;1.52;0.57;;;15.70;59.00;;;;;;2532261;53;20935;-82
2023/02/19 13:44:00;;;;;;;2.20;0.70;;;15.70;58.60;;;;;;2533078;53;21989;-83
2023/02/19 13:46:38;;;;;;;2.40;0.80;;;15.70;59.00;;;;;;2533168;53;20912;-82
2023/02/19 13:49:24;;;;;;;1.85;0.60;;;15.70;58.70;;;;;;2296367;53;21477;-85
2023/02/19 13:51:54;;;;;;;3.42;0.90;;;15.70;58.30;;;;;;2532677;53;20923;-84
2023/02/19 13:54:32;;;;;;;2.22;0.70;;;15.60;58.80;;;;;;2532724;53;20987;-84
2023/02/19 13:57:27;;;;;;;2.95;0.80;;;15.60;58.40;;;;;;2271155;54;22031;-82
2023/02/19 13:59:57;;;;;;;1.50;0.50;;;15.60;58.10;;;;;;2533247;53;20935;-84
2023/02/19 14:02:29;;;;;;;2.33;0.70;;;15.60;58.70;;;;;;2531967;53;20947;-82
2023/02/19 14:05:07;;;;;;;2.45;0.85;;;15.60;58.60;;;;;;2531897;53;20950;-84
2023/02/19 14:07:55;;;;;;;1.50;0.55;;;15.60;58.80;;;;;;2295618;53;20954;-81
2023/02/19 14:10:53;;;;;;;3.33;0.60;;;15.60;58.30;;;;;;2530639;53;20978;-82
2023/02/19 14:18:43;;;;;;;2.10;0.70;;;15.60;58.50;;;;;;2292539;53;21220;-83
2023/02/19 14:21:24;;;;;;;2.60;1.10;;;15.60;58.60;;;;;;2535778;53;20962;-84
2023/02/19 14:23:54;;;;;;;2.05;0.65;;;15.60;58.90;;;;;;2300855;53;21030;-84